sensor_id;sensor_type;location;lat;lon;timestamp;P1;durP1;ratioP1;P2;durP2;ratioP2
15616;SDS011;7908;51.688;7.130;2023-08-30T00:02:01;7.80;;;6.57;;
15616;SDS011;7908;51.688;7.130;2023-08-30T00:04:31;8.57;;;6.73;;
15616;SDS011;7908;51.688;7.130;2023-08-30T00:07:00;8.13;;;7.37;;
15616;SDS011;7908;51.688;7.130;2023-08-30T00:09:28;9.27;;;8.37;;
15616;SDS011;7908;51.688;7.130;2023-08-30T00:11:57;10.17;;;8.17;;
15616;SDS011;7908;51.688;7.130;2023-08-30T00:14:26;9.87;;;8.97;;
15616;SDS011;7908;51.688;7.130;2023-08-30T00:16:55;10.60;;;9.60;;
15616;SDS011;7908;51.688;7.130;2023-08-30T00:19:23;10.17;;;9.27;;
15616;SDS011;7908;51.688;7.130;2023-08-30T00:21:53;10.30;;;9.33;;
15616;SDS011;7908;51.688;7.130;2023-08-30T00:24:23;10.17;;;9.17;;
15616;SDS011;7908;51.688;7.130;2023-08-30T00:26:52;12.07;;;10.33;;
15616;SDS011;7908;51.688;7.130;2023-08-30T00:29:20;12.17;;;9.57;;
15616;SDS011;7908;51.688;7.130;2023-08-30T00:31:49;11.03;;;9.87;;
15616;SDS011;7908;51.688;7.130;2023-08-30T00:34:17;11.43;;;10.23;;
15616;SDS011;7908;51.688;7.130;2023-08-30T00:36:46;11.53;;;10.37;;
15616;SDS011;7908;51.688;7.130;2023-08-30T00:39:16;13.27;;;10.67;;
15616;SDS011;7908;51.688;7.130;2023-08-30T00:41:45;12.30;;;10.97;;
15616;SDS011;7908;51.688;7.130;2023-08-30T00:44:13;10.83;;;9.83;;
15616;SDS011;7908;51.688;7.130;2023-08-30T00:46:42;12.07;;;10.67;;
15616;SDS011;7908;51.688;7.130;2023-08-30T00:49:11;12.90;;;11.67;;
15616;SDS011;7908;51.688;7.130;2023-08-30T00:51:39;12.20;;;11.03;;
15616;SDS011;7908;51.688;7.130;2023-08-30T00:54:08;14.00;;;11.87;;
15616;SDS011;7908;51.688;7.130;2023-08-30T00:56:38;12.33;;;11.03;;
15616;SDS011;7908;51.688;7.130;2023-08-30T00:59:07;13.63;;;12.33;;
15616;SDS011;7908;51.688;7.130;2023-08-30T01:01:37;14.60;;;13.20;;
15616;SDS011;7908;51.688;7.130;2023-08-30T01:04:08;14.33;;;12.93;;
15616;SDS011;7908;51.688;7.130;2023-08-30T01:06:36;16.43;;;13.40;;
15616;SDS011;7908;51.688;7.130;2023-08-30T01:09:05;15.50;;;13.87;;
15616;SDS011;7908;51.688;7.130;2023-08-30T01:11:36;15.73;;;14.13;;
15616;SDS011;7908;51.688;7.130;2023-08-30T01:14:12;15.83;;;14.20;;
15616;SDS011;7908;51.688;7.130;2023-08-30T01:16:46;17.00;;;15.03;;
15616;SDS011;7908;51.688;7.130;2023-08-30T01:19:18;18.00;;;16.03;;
15616;SDS011;7908;51.688;7.130;2023-08-30T01:22:03;17.30;;;15.50;;
15616;SDS011;7908;51.688;7.130;2023-08-30T01:24:41;17.73;;;15.93;;
15616;SDS011;7908;51.688;7.130;2023-08-30T01:27:17;18.87;;;16.27;;
15616;SDS011;7908;51.688;7.130;2023-08-30T01:29:47;16.70;;;14.90;;
15616;SDS011;7908;51.688;7.130;2023-08-30T01:32:17;17.60;;;15.97;;
15616;SDS011;7908;51.688;7.130;2023-08-30T01:34:49;16.80;;;15.00;;
15616;SDS011;7908;51.688;7.130;2023-08-30T01:37:18;17.63;;;15.40;;
15616;SDS011;7908;51.688;7.130;2023-08-30T01:39:47;16.70;;;14.87;;
15616;SDS011;7908;51.688;7.130;2023-08-30T01:42:18;17.63;;;15.87;;
15616;SDS011;7908;51.688;7.130;2023-08-30T01:44:48;18.17;;;16.37;;
15616;SDS011;7908;51.688;7.130;2023-08-30T01:47:21;17.00;;;15.20;;
15616;SDS011;7908;51.688;7.130;2023-08-30T01:49:51;17.17;;;15.40;;
15616;SDS011;7908;51.688;7.130;2023-08-30T01:52:21;18.53;;;16.50;;
15616;SDS011;7908;51.688;7.130;2023-08-30T01:54:51;17.40;;;15.60;;
15616;SDS011;7908;51.688;7.130;2023-08-30T01:57:21;17.87;;;16.07;;
15616;SDS011;7908;51.688;7.130;2023-08-30T01:59:49;17.93;;;16.03;;
15616;SDS011;7908;51.688;7.130;2023-08-30T02:02:18;18.13;;;15.37;;
15616;SDS011;7908;51.688;7.130;2023-08-30T02:04:47;19.00;;;12.90;;
15616;SDS011;7908;51.688;7.130;2023-08-30T02:07:17;11.57;;;10.33;;
15616;SDS011;7908;51.688;7.130;2023-08-30T02:09:51;13.73;;;11.20;;
15616;SDS011;7908;51.688;7.130;2023-08-30T02:12:27;14.53;;;10.47;;
15616;SDS011;7908;51.688;7.130;2023-08-30T02:15:00;13.50;;;11.57;;
15616;SDS011;7908;51.688;7.130;2023-08-30T02:17:31;14.23;;;11.93;;
15616;SDS011;7908;51.688;7.130;2023-08-30T02:20:00;12.63;;;11.33;;
15616;SDS011;7908;51.688;7.130;2023-08-30T02:22:30;14.87;;;13.00;;
15616;SDS011;7908;51.688;7.130;2023-08-30T02:24:59;15.50;;;12.97;;
15616;SDS011;7908;51.688;7.130;2023-08-30T02:27:32;13.40;;;12.07;;
15616;SDS011;7908;51.688;7.130;2023-08-30T02:30:01;15.23;;;13.63;;
15616;SDS011;7908;51.688;7.130;2023-08-30T02:32:30;18.33;;;14.20;;
15616;SDS011;7908;51.688;7.130;2023-08-30T02:34:58;18.13;;;13.57;;
15616;SDS011;7908;51.688;7.130;2023-08-30T02:37:27;18.90;;;13.80;;
15616;SDS011;7908;51.688;7.130;2023-08-30T02:39:55;15.50;;;13.30;;
15616;SDS011;7908;51.688;7.130;2023-08-30T02:42:24;13.63;;;12.23;;
15616;SDS011;7908;51.688;7.130;2023-08-30T02:44:54;15.43;;;13.63;;
15616;SDS011;7908;51.688;7.130;2023-08-30T02:47:23;15.50;;;14.00;;
15616;SDS011;7908;51.688;7.130;2023-08-30T02:49:51;15.50;;;13.90;;
15616;SDS011;7908;51.688;7.130;2023-08-30T02:52:20;15.07;;;13.53;;
15616;SDS011;7908;51.688;7.130;2023-08-30T02:54:48;14.00;;;12.57;;
15616;SDS011;7908;51.688;7.130;2023-08-30T02:57:17;15.93;;;12.63;;
15616;SDS011;7908;51.688;7.130;2023-08-30T02:59:45;13.23;;;10.90;;
15616;SDS011;7908;51.688;7.130;2023-08-30T03:02:15;13.70;;;10.73;;
15616;SDS011;7908;51.688;7.130;2023-08-30T03:04:44;11.90;;;10.63;;
15616;SDS011;7908;51.688;7.130;2023-08-30T03:07:12;11.83;;;10.63;;
15616;SDS011;7908;51.688;7.130;2023-08-30T03:09:40;11.23;;;10.00;;
15616;SDS011;7908;51.688;7.130;2023-08-30T03:12:09;12.67;;;11.37;;
15616;SDS011;7908;51.688;7.130;2023-08-30T03:14:38;12.77;;;11.20;;
15616;SDS011;7908;51.688;7.130;2023-08-30T03:17:06;15.17;;;11.87;;
15616;SDS011;7908;51.688;7.130;2023-08-30T03:19:36;14.83;;;11.67;;
15616;SDS011;7908;51.688;7.130;2023-08-30T03:22:04;13.30;;;11.83;;
15616;SDS011;7908;51.688;7.130;2023-08-30T03:24:33;14.10;;;11.37;;
15616;SDS011;7908;51.688;7.130;2023-08-30T03:27:02;14.40;;;11.97;;
15616;SDS011;7908;51.688;7.130;2023-08-30T03:29:31;14.17;;;12.67;;
15616;SDS011;7908;51.688;7.130;2023-08-30T03:31:59;17.30;;;14.80;;
15616;SDS011;7908;51.688;7.130;2023-08-30T03:34:28;14.00;;;12.47;;
15616;SDS011;7908;51.688;7.130;2023-08-30T03:36:58;15.37;;;13.40;;
15616;SDS011;7908;51.688;7.130;2023-08-30T03:39:26;15.60;;;13.97;;
15616;SDS011;7908;51.688;7.130;2023-08-30T03:41:55;15.03;;;13.07;;
15616;SDS011;7908;51.688;7.130;2023-08-30T03:44:24;14.67;;;13.07;;
15616;SDS011;7908;51.688;7.130;2023-08-30T03:46:53;16.27;;;13.13;;
15616;SDS011;7908;51.688;7.130;2023-08-30T03:49:23;13.57;;;9.70;;
15616;SDS011;7908;51.688;7.130;2023-08-30T03:51:52;13.23;;;11.60;;
15616;SDS011;7908;51.688;7.130;2023-08-30T03:54:21;13.73;;;12.30;;
15616;SDS011;7908;51.688;7.130;2023-08-30T03:56:50;12.57;;;11.17;;
15616;SDS011;7908;51.688;7.130;2023-08-30T03:59:19;14.37;;;11.97;;
15616;SDS011;7908;51.688;7.130;2023-08-30T04:01:52;14.77;;;12.37;;
15616;SDS011;7908;51.688;7.130;2023-08-30T04:04:20;13.73;;;11.33;;
15616;SDS011;7908;51.688;7.130;2023-08-30T04:06:49;14.20;;;11.47;;
15616;SDS011;7908;51.688;7.130;2023-08-30T04:09:17;14.43;;;12.83;;
15616;SDS011;7908;51.688;7.130;2023-08-30T04:11:47;14.27;;;11.27;;
15616;SDS011;7908;51.688;7.130;2023-08-30T04:14:16;14.60;;;12.93;;
15616;SDS011;7908;51.688;7.130;2023-08-30T04:16:44;16.03;;;14.33;;
15616;SDS011;7908;51.688;7.130;2023-08-30T04:19:13;14.10;;;12.60;;
15616;SDS011;7908;51.688;7.130;2023-08-30T04:21:41;19.87;;;16.77;;
15616;SDS011;7908;51.688;7.130;2023-08-30T04:24:10;20.57;;;16.73;;
15616;SDS011;7908;51.688;7.130;2023-08-30T04:26:38;21.10;;;18.83;;
15616;SDS011;7908;51.688;7.130;2023-08-30T04:29:08;19.87;;;17.70;;
15616;SDS011;7908;51.688;7.130;2023-08-30T04:31:37;24.27;;;20.73;;
15616;SDS011;7908;51.688;7.130;2023-08-30T04:34:05;25.13;;;21.00;;
15616;SDS011;7908;51.688;7.130;2023-08-30T04:36:34;23.70;;;20.13;;
15616;SDS011;7908;51.688;7.130;2023-08-30T04:39:06;16.27;;;14.47;;
15616;SDS011;7908;51.688;7.130;2023-08-30T04:41:35;14.10;;;11.60;;
15616;SDS011;7908;51.688;7.130;2023-08-30T04:44:04;15.30;;;11.60;;
15616;SDS011;7908;51.688;7.130;2023-08-30T04:46:34;13.70;;;10.37;;
15616;SDS011;7908;51.688;7.130;2023-08-30T04:49:03;14.53;;;12.37;;
15616;SDS011;7908;51.688;7.130;2023-08-30T04:51:31;17.00;;;13.97;;
15616;SDS011;7908;51.688;7.130;2023-08-30T04:54:00;17.47;;;14.63;;
15616;SDS011;7908;51.688;7.130;2023-08-30T04:56:29;16.83;;;14.30;;
15616;SDS011;7908;51.688;7.130;2023-08-30T04:58:57;18.07;;;13.83;;
15616;SDS011;7908;51.688;7.130;2023-08-30T05:01:26;18.73;;;15.37;;
15616;SDS011;7908;51.688;7.130;2023-08-30T05:03:56;19.77;;;15.50;;
15616;SDS011;7908;51.688;7.130;2023-08-30T05:06:24;21.57;;;16.83;;
15616;SDS011;7908;51.688;7.130;2023-08-30T05:08:53;19.73;;;17.47;;
15616;SDS011;7908;51.688;7.130;2023-08-30T05:11:22;26.30;;;21.17;;
15616;SDS011;7908;51.688;7.130;2023-08-30T05:13:52;26.13;;;19.30;;
15616;SDS011;7908;51.688;7.130;2023-08-30T05:16:21;30.87;;;25.20;;
15616;SDS011;7908;51.688;7.130;2023-08-30T05:18:50;35.67;;;27.80;;
15616;SDS011;7908;51.688;7.130;2023-08-30T05:21:20;39.67;;;32.03;;
15616;SDS011;7908;51.688;7.130;2023-08-30T05:23:48;40.43;;;32.37;;
15616;SDS011;7908;51.688;7.130;2023-08-30T05:26:17;37.87;;;30.53;;
15616;SDS011;7908;51.688;7.130;2023-08-30T05:28:46;40.60;;;32.97;;
15616;SDS011;7908;51.688;7.130;2023-08-30T05:31:14;41.03;;;31.80;;
15616;SDS011;7908;51.688;7.130;2023-08-30T05:33:43;41.27;;;33.23;;
15616;SDS011;7908;51.688;7.130;2023-08-30T05:36:11;40.60;;;32.13;;
15616;SDS011;7908;51.688;7.130;2023-08-30T05:38:45;42.47;;;33.23;;
15616;SDS011;7908;51.688;7.130;2023-08-30T05:41:13;41.53;;;33.20;;
15616;SDS011;7908;51.688;7.130;2023-08-30T05:43:42;42.10;;;32.57;;
15616;SDS011;7908;51.688;7.130;2023-08-30T05:46:11;37.23;;;31.07;;
15616;SDS011;7908;51.688;7.130;2023-08-30T05:48:41;36.70;;;30.43;;
15616;SDS011;7908;51.688;7.130;2023-08-30T05:51:10;42.67;;;32.23;;
15616;SDS011;7908;51.688;7.130;2023-08-30T05:53:38;33.67;;;29.60;;
15616;SDS011;7908;51.688;7.130;2023-08-30T05:56:08;35.93;;;29.83;;
15616;SDS011;7908;51.688;7.130;2023-08-30T05:58:37;38.63;;;29.23;;
15616;SDS011;7908;51.688;7.130;2023-08-30T06:01:07;32.73;;;27.17;;
15616;SDS011;7908;51.688;7.130;2023-08-30T06:03:38;39.27;;;30.00;;
15616;SDS011;7908;51.688;7.130;2023-08-30T06:06:07;33.67;;;27.87;;
15616;SDS011;7908;51.688;7.130;2023-08-30T06:08:36;32.73;;;27.73;;
15616;SDS011;7908;51.688;7.130;2023-08-30T06:11:05;32.93;;;28.00;;
15616;SDS011;7908;51.688;7.130;2023-08-30T06:13:35;33.50;;;27.93;;
15616;SDS011;7908;51.688;7.130;2023-08-30T06:16:04;31.70;;;27.33;;
15616;SDS011;7908;51.688;7.130;2023-08-30T06:18:32;32.97;;;27.87;;
15616;SDS011;7908;51.688;7.130;2023-08-30T06:21:02;32.63;;;26.40;;
15616;SDS011;7908;51.688;7.130;2023-08-30T06:23:31;30.27;;;26.43;;
15616;SDS011;7908;51.688;7.130;2023-08-30T06:26:01;30.27;;;26.20;;
15616;SDS011;7908;51.688;7.130;2023-08-30T06:28:32;28.33;;;24.67;;
15616;SDS011;7908;51.688;7.130;2023-08-30T06:31:05;31.37;;;26.63;;
15616;SDS011;7908;51.688;7.130;2023-08-30T06:33:34;34.63;;;27.53;;
15616;SDS011;7908;51.688;7.130;2023-08-30T06:36:05;32.43;;;27.87;;
15616;SDS011;7908;51.688;7.130;2023-08-30T06:38:33;29.37;;;26.23;;
15616;SDS011;7908;51.688;7.130;2023-08-30T06:41:02;37.87;;;27.00;;
15616;SDS011;7908;51.688;7.130;2023-08-30T06:43:31;30.03;;;26.77;;
15616;SDS011;7908;51.688;7.130;2023-08-30T06:46:00;34.13;;;25.37;;
15616;SDS011;7908;51.688;7.130;2023-08-30T06:48:31;30.67;;;26.03;;
15616;SDS011;7908;51.688;7.130;2023-08-30T06:50:59;34.17;;;24.67;;
15616;SDS011;7908;51.688;7.130;2023-08-30T06:53:29;27.70;;;24.50;;
15616;SDS011;7908;51.688;7.130;2023-08-30T06:55:59;28.03;;;23.13;;
15616;SDS011;7908;51.688;7.130;2023-08-30T06:58:29;29.27;;;23.97;;
15616;SDS011;7908;51.688;7.130;2023-08-30T07:00:57;26.23;;;22.97;;
15616;SDS011;7908;51.688;7.130;2023-08-30T07:03:26;23.47;;;21.07;;
15616;SDS011;7908;51.688;7.130;2023-08-30T07:05:59;23.60;;;21.10;;
15616;SDS011;7908;51.688;7.130;2023-08-30T07:08:27;24.63;;;20.03;;
15616;SDS011;7908;51.688;7.130;2023-08-30T07:10:59;25.77;;;20.07;;
15616;SDS011;7908;51.688;7.130;2023-08-30T07:13:30;22.23;;;19.93;;
15616;SDS011;7908;51.688;7.130;2023-08-30T07:15:59;21.53;;;19.23;;
15616;SDS011;7908;51.688;7.130;2023-08-30T07:18:28;21.03;;;18.57;;
15616;SDS011;7908;51.688;7.130;2023-08-30T07:21:01;24.00;;;19.37;;
15616;SDS011;7908;51.688;7.130;2023-08-30T07:23:33;20.77;;;18.67;;
15616;SDS011;7908;51.688;7.130;2023-08-30T07:26:02;20.97;;;18.80;;
15616;SDS011;7908;51.688;7.130;2023-08-30T07:28:31;20.90;;;18.67;;
15616;SDS011;7908;51.688;7.130;2023-08-30T07:31:02;20.03;;;17.93;;
15616;SDS011;7908;51.688;7.130;2023-08-30T07:33:31;19.90;;;17.37;;
15616;SDS011;7908;51.688;7.130;2023-08-30T07:36:02;21.37;;;18.10;;
15616;SDS011;7908;51.688;7.130;2023-08-30T07:38:31;19.27;;;17.27;;
15616;SDS011;7908;51.688;7.130;2023-08-30T07:41:00;18.57;;;16.63;;
15616;SDS011;7908;51.688;7.130;2023-08-30T07:43:29;18.60;;;16.60;;
15616;SDS011;7908;51.688;7.130;2023-08-30T07:45:59;23.70;;;16.90;;
15616;SDS011;7908;51.688;7.130;2023-08-30T07:48:28;21.77;;;15.97;;
15616;SDS011;7908;51.688;7.130;2023-08-30T07:50:57;18.53;;;16.37;;
15616;SDS011;7908;51.688;7.130;2023-08-30T07:53:28;22.67;;;16.77;;
15616;SDS011;7908;51.688;7.130;2023-08-30T07:56:03;18.10;;;15.47;;
15616;SDS011;7908;51.688;7.130;2023-08-30T07:58:33;15.60;;;13.93;;
15616;SDS011;7908;51.688;7.130;2023-08-30T08:01:02;16.43;;;14.60;;
15616;SDS011;7908;51.688;7.130;2023-08-30T08:03:31;17.33;;;14.43;;
15616;SDS011;7908;51.688;7.130;2023-08-30T08:05:59;15.90;;;13.13;;
15616;SDS011;7908;51.688;7.130;2023-08-30T08:08:32;15.53;;;13.20;;
15616;SDS011;7908;51.688;7.130;2023-08-30T08:11:01;15.70;;;11.90;;
15616;SDS011;7908;51.688;7.130;2023-08-30T08:13:33;12.77;;;11.03;;
15616;SDS011;7908;51.688;7.130;2023-08-30T08:16:02;16.67;;;12.77;;
15616;SDS011;7908;51.688;7.130;2023-08-30T08:18:31;15.60;;;12.43;;
15616;SDS011;7908;51.688;7.130;2023-08-30T08:21:00;15.13;;;12.03;;
15616;SDS011;7908;51.688;7.130;2023-08-30T08:23:31;12.40;;;10.63;;
15616;SDS011;7908;51.688;7.130;2023-08-30T08:26:01;12.60;;;10.20;;
15616;SDS011;7908;51.688;7.130;2023-08-30T08:28:39;15.00;;;9.70;;
15616;SDS011;7908;51.688;7.130;2023-08-30T08:31:07;13.57;;;9.67;;
15616;SDS011;7908;51.688;7.130;2023-08-30T08:33:36;10.07;;;7.53;;
15616;SDS011;7908;51.688;7.130;2023-08-30T08:36:05;10.23;;;7.70;;
15616;SDS011;7908;51.688;7.130;2023-08-30T08:38:36;8.73;;;7.57;;
15616;SDS011;7908;51.688;7.130;2023-08-30T08:41:06;15.57;;;7.43;;
15616;SDS011;7908;51.688;7.130;2023-08-30T08:43:38;7.00;;;6.30;;
15616;SDS011;7908;51.688;7.130;2023-08-30T08:46:11;10.90;;;5.67;;
15616;SDS011;7908;51.688;7.130;2023-08-30T08:48:43;11.50;;;6.60;;
15616;SDS011;7908;51.688;7.130;2023-08-30T08:51:16;8.73;;;6.07;;
15616;SDS011;7908;51.688;7.130;2023-08-30T08:53:46;9.77;;;6.30;;
15616;SDS011;7908;51.688;7.130;2023-08-30T08:56:15;18.17;;;6.30;;
15616;SDS011;7908;51.688;7.130;2023-08-30T08:58:45;10.00;;;5.70;;
15616;SDS011;7908;51.688;7.130;2023-08-30T09:01:15;8.18;;;5.30;;
15616;SDS011;7908;51.688;7.130;2023-08-30T09:03:59;7.03;;;5.03;;
15616;SDS011;7908;51.688;7.130;2023-08-30T09:06:32;12.65;;;5.07;;
15616;SDS011;7908;51.688;7.130;2023-08-30T09:09:05;7.53;;;4.97;;
15616;SDS011;7908;51.688;7.130;2023-08-30T09:11:36;6.78;;;4.95;;
15616;SDS011;7908;51.688;7.130;2023-08-30T09:14:16;6.80;;;5.28;;
15616;SDS011;7908;51.688;7.130;2023-08-30T09:16:53;9.07;;;4.85;;
15616;SDS011;7908;51.688;7.130;2023-08-30T09:19:24;5.25;;;4.20;;
15616;SDS011;7908;51.688;7.130;2023-08-30T09:21:53;5.57;;;4.22;;
15616;SDS011;7908;51.688;7.130;2023-08-30T09:24:24;11.00;;;4.80;;
15616;SDS011;7908;51.688;7.130;2023-08-30T09:26:54;7.22;;;4.70;;
15616;SDS011;7908;51.688;7.130;2023-08-30T09:29:23;7.00;;;5.18;;
15616;SDS011;7908;51.688;7.130;2023-08-30T09:31:51;6.68;;;5.32;;
15616;SDS011;7908;51.688;7.130;2023-08-30T09:34:22;7.68;;;5.22;;
15616;SDS011;7908;51.688;7.130;2023-08-30T09:36:54;7.57;;;5.25;;
15616;SDS011;7908;51.688;7.130;2023-08-30T09:39:27;7.40;;;4.65;;
15616;SDS011;7908;51.688;7.130;2023-08-30T09:41:57;7.85;;;4.47;;
15616;SDS011;7908;51.688;7.130;2023-08-30T09:44:33;7.28;;;4.57;;
15616;SDS011;7908;51.688;7.130;2023-08-30T09:47:03;7.07;;;5.23;;
15616;SDS011;7908;51.688;7.130;2023-08-30T09:49:33;8.57;;;5.23;;
15616;SDS011;7908;51.688;7.130;2023-08-30T09:52:08;27.57;;;8.47;;
15616;SDS011;7908;51.688;7.130;2023-08-30T09:54:41;9.00;;;6.23;;
15616;SDS011;7908;51.688;7.130;2023-08-30T09:57:11;11.50;;;6.57;;
15616;SDS011;7908;51.688;7.130;2023-08-30T09:59:40;10.33;;;7.03;;
15616;SDS011;7908;51.688;7.130;2023-08-30T10:02:12;10.60;;;7.40;;
15616;SDS011;7908;51.688;7.130;2023-08-30T10:04:41;11.23;;;8.13;;
15616;SDS011;7908;51.688;7.130;2023-08-30T10:07:12;10.37;;;8.37;;
15616;SDS011;7908;51.688;7.130;2023-08-30T10:09:45;11.13;;;8.90;;
15616;SDS011;7908;51.688;7.130;2023-08-30T10:12:34;11.37;;;8.53;;
15616;SDS011;7908;51.688;7.130;2023-08-30T10:15:04;9.90;;;8.40;;
15616;SDS011;7908;51.688;7.130;2023-08-30T10:17:34;10.57;;;8.57;;
15616;SDS011;7908;51.688;7.130;2023-08-30T10:20:07;12.10;;;9.23;;
15616;SDS011;7908;51.688;7.130;2023-08-30T10:22:39;10.17;;;9.10;;
15616;SDS011;7908;51.688;7.130;2023-08-30T10:25:16;14.23;;;10.37;;
15616;SDS011;7908;51.688;7.130;2023-08-30T10:27:49;11.43;;;9.57;;
15616;SDS011;7908;51.688;7.130;2023-08-30T10:30:22;11.13;;;10.00;;
15616;SDS011;7908;51.688;7.130;2023-08-30T10:32:54;15.27;;;11.33;;
15616;SDS011;7908;51.688;7.130;2023-08-30T10:35:35;12.60;;;11.17;;
15616;SDS011;7908;51.688;7.130;2023-08-30T10:38:24;14.57;;;12.07;;
15616;SDS011;7908;51.688;7.130;2023-08-30T10:41:08;11.07;;;9.80;;
15616;SDS011;7908;51.688;7.130;2023-08-30T10:43:38;10.83;;;9.73;;
15616;SDS011;7908;51.688;7.130;2023-08-30T10:46:10;12.63;;;9.87;;
15616;SDS011;7908;51.688;7.130;2023-08-30T10:48:48;10.57;;;9.57;;
15616;SDS011;7908;51.688;7.130;2023-08-30T10:51:34;12.10;;;10.30;;
15616;SDS011;7908;51.688;7.130;2023-08-30T10:54:10;10.90;;;9.80;;
15616;SDS011;7908;51.688;7.130;2023-08-30T10:56:48;11.57;;;10.27;;
15616;SDS011;7908;51.688;7.130;2023-08-30T10:59:32;11.90;;;9.80;;
15616;SDS011;7908;51.688;7.130;2023-08-30T11:02:06;10.40;;;9.30;;
15616;SDS011;7908;51.688;7.130;2023-08-30T11:04:39;11.93;;;10.50;;
15616;SDS011;7908;51.688;7.130;2023-08-30T11:07:12;11.37;;;10.17;;
15616;SDS011;7908;51.688;7.130;2023-08-30T11:09:45;12.80;;;10.93;;
15616;SDS011;7908;51.688;7.130;2023-08-30T11:12:21;12.63;;;10.97;;
15616;SDS011;7908;51.688;7.130;2023-08-30T11:14:52;14.10;;;10.70;;
15616;SDS011;7908;51.688;7.130;2023-08-30T11:17:22;11.73;;;10.53;;
15616;SDS011;7908;51.688;7.130;2023-08-30T11:19:57;13.57;;;12.03;;
15616;SDS011;7908;51.688;7.130;2023-08-30T11:22:34;15.37;;;12.93;;
15616;SDS011;7908;51.688;7.130;2023-08-30T11:25:09;15.60;;;12.87;;
15616;SDS011;7908;51.688;7.130;2023-08-30T11:27:40;14.37;;;12.87;;
15616;SDS011;7908;51.688;7.130;2023-08-30T11:30:10;15.00;;;13.43;;
15616;SDS011;7908;51.688;7.130;2023-08-30T11:32:48;15.67;;;13.80;;
15616;SDS011;7908;51.688;7.130;2023-08-30T11:35:21;16.00;;;13.90;;
15616;SDS011;7908;51.688;7.130;2023-08-30T11:37:54;16.83;;;15.00;;
15616;SDS011;7908;51.688;7.130;2023-08-30T11:40:23;15.37;;;13.77;;
15616;SDS011;7908;51.688;7.130;2023-08-30T11:42:58;16.93;;;13.97;;
15616;SDS011;7908;51.688;7.130;2023-08-30T11:45:42;16.03;;;14.03;;
15616;SDS011;7908;51.688;7.130;2023-08-30T11:48:11;16.73;;;15.03;;
15616;SDS011;7908;51.688;7.130;2023-08-30T11:50:46;14.63;;;13.23;;
15616;SDS011;7908;51.688;7.130;2023-08-30T11:53:16;17.93;;;16.13;;
15616;SDS011;7908;51.688;7.130;2023-08-30T11:55:48;15.70;;;14.07;;
15616;SDS011;7908;51.688;7.130;2023-08-30T11:58:28;16.17;;;14.57;;
15616;SDS011;7908;51.688;7.130;2023-08-30T12:01:11;15.83;;;14.23;;
15616;SDS011;7908;51.688;7.130;2023-08-30T12:03:52;17.17;;;15.47;;
15616;SDS011;7908;51.688;7.130;2023-08-30T12:06:22;18.03;;;16.33;;
15616;SDS011;7908;51.688;7.130;2023-08-30T12:08:57;15.57;;;14.07;;
15616;SDS011;7908;51.688;7.130;2023-08-30T12:11:37;14.20;;;12.87;;
15616;SDS011;7908;51.688;7.130;2023-08-30T12:14:08;15.60;;;14.10;;
15616;SDS011;7908;51.688;7.130;2023-08-30T12:16:37;13.90;;;12.50;;
15616;SDS011;7908;51.688;7.130;2023-08-30T12:19:07;13.97;;;12.57;;
15616;SDS011;7908;51.688;7.130;2023-08-30T12:21:40;12.30;;;11.20;;
15616;SDS011;7908;51.688;7.130;2023-08-30T12:24:13;10.53;;;9.60;;
15616;SDS011;7908;51.688;7.130;2023-08-30T12:26:42;10.63;;;9.63;;
15616;SDS011;7908;51.688;7.130;2023-08-30T12:29:12;9.43;;;8.40;;
15616;SDS011;7908;51.688;7.130;2023-08-30T12:31:41;10.93;;;9.90;;
15616;SDS011;7908;51.688;7.130;2023-08-30T12:34:11;11.63;;;10.43;;
15616;SDS011;7908;51.688;7.130;2023-08-30T12:36:41;9.93;;;8.93;;
15616;SDS011;7908;51.688;7.130;2023-08-30T12:39:15;9.00;;;8.20;;
15616;SDS011;7908;51.688;7.130;2023-08-30T12:41:45;10.83;;;8.40;;
15616;SDS011;7908;51.688;7.130;2023-08-30T12:44:21;9.23;;;8.37;;
15616;SDS011;7908;51.688;7.130;2023-08-30T12:46:50;9.70;;;8.77;;
15616;SDS011;7908;51.688;7.130;2023-08-30T12:49:19;10.37;;;9.27;;
15616;SDS011;7908;51.688;7.130;2023-08-30T12:51:51;10.70;;;9.73;;
15616;SDS011;7908;51.688;7.130;2023-08-30T12:54:20;12.07;;;11.00;;
15616;SDS011;7908;51.688;7.130;2023-08-30T12:56:50;12.63;;;11.37;;
15616;SDS011;7908;51.688;7.130;2023-08-30T12:59:22;12.77;;;11.63;;
15616;SDS011;7908;51.688;7.130;2023-08-30T13:01:55;12.77;;;11.57;;
15616;SDS011;7908;51.688;7.130;2023-08-30T13:04:24;15.17;;;13.67;;
15616;SDS011;7908;51.688;7.130;2023-08-30T13:06:53;15.47;;;13.97;;
15616;SDS011;7908;51.688;7.130;2023-08-30T13:09:22;14.60;;;13.20;;
15616;SDS011;7908;51.688;7.130;2023-08-30T13:11:54;14.13;;;12.87;;
15616;SDS011;7908;51.688;7.130;2023-08-30T13:14:27;15.27;;;13.87;;
15616;SDS011;7908;51.688;7.130;2023-08-30T13:16:57;14.53;;;13.13;;
15616;SDS011;7908;51.688;7.130;2023-08-30T13:19:32;14.47;;;13.07;;
15616;SDS011;7908;51.688;7.130;2023-08-30T13:22:10;15.23;;;13.73;;
15616;SDS011;7908;51.688;7.130;2023-08-30T13:24:41;16.40;;;13.70;;
15616;SDS011;7908;51.688;7.130;2023-08-30T13:27:12;14.10;;;12.70;;
15616;SDS011;7908;51.688;7.130;2023-08-30T13:29:48;13.67;;;12.40;;
15616;SDS011;7908;51.688;7.130;2023-08-30T13:32:21;12.73;;;11.63;;
15616;SDS011;7908;51.688;7.130;2023-08-30T13:34:57;12.00;;;10.90;;
15616;SDS011;7908;51.688;7.130;2023-08-30T13:37:36;13.03;;;11.73;;
15616;SDS011;7908;51.688;7.130;2023-08-30T13:40:28;12.80;;;10.90;;
15616;SDS011;7908;51.688;7.130;2023-08-30T13:43:02;12.57;;;10.70;;
15616;SDS011;7908;51.688;7.130;2023-08-30T13:45:44;10.50;;;9.50;;
15616;SDS011;7908;51.688;7.130;2023-08-30T13:48:18;11.87;;;10.87;;
15616;SDS011;7908;51.688;7.130;2023-08-30T13:50:54;14.77;;;13.10;;
15616;SDS011;7908;51.688;7.130;2023-08-30T13:53:23;13.40;;;12.10;;
15616;SDS011;7908;51.688;7.130;2023-08-30T13:55:53;13.60;;;12.30;;
15616;SDS011;7908;51.688;7.130;2023-08-30T13:58:37;13.57;;;12.37;;
15616;SDS011;7908;51.688;7.130;2023-08-30T14:01:10;12.27;;;11.10;;
15616;SDS011;7908;51.688;7.130;2023-08-30T14:03:55;13.17;;;11.80;;
15616;SDS011;7908;51.688;7.130;2023-08-30T14:06:28;14.43;;;13.03;;
15616;SDS011;7908;51.688;7.130;2023-08-30T14:09:02;14.90;;;12.93;;
15616;SDS011;7908;51.688;7.130;2023-08-30T14:11:36;14.17;;;12.87;;
15616;SDS011;7908;51.688;7.130;2023-08-30T14:14:11;12.53;;;11.43;;
15616;SDS011;7908;51.688;7.130;2023-08-30T14:16:46;13.80;;;11.73;;
15616;SDS011;7908;51.688;7.130;2023-08-30T14:19:20;13.30;;;12.00;;
15616;SDS011;7908;51.688;7.130;2023-08-30T14:21:59;12.67;;;11.47;;
15616;SDS011;7908;51.688;7.130;2023-08-30T14:24:32;12.23;;;11.13;;
15616;SDS011;7908;51.688;7.130;2023-08-30T14:27:12;12.20;;;11.03;;
15616;SDS011;7908;51.688;7.130;2023-08-30T14:29:43;11.73;;;10.53;;
15616;SDS011;7908;51.688;7.130;2023-08-30T14:32:13;12.60;;;11.33;;
15616;SDS011;7908;51.688;7.130;2023-08-30T14:34:43;11.73;;;10.63;;
15616;SDS011;7908;51.688;7.130;2023-08-30T14:37:15;12.30;;;11.17;;
15616;SDS011;7908;51.688;7.130;2023-08-30T14:39:46;12.80;;;11.60;;
15616;SDS011;7908;51.688;7.130;2023-08-30T14:42:19;12.47;;;10.70;;
15616;SDS011;7908;51.688;7.130;2023-08-30T14:44:49;13.00;;;11.60;;
15616;SDS011;7908;51.688;7.130;2023-08-30T14:47:22;11.97;;;10.47;;
15616;SDS011;7908;51.688;7.130;2023-08-30T14:49:55;11.70;;;10.60;;
15616;SDS011;7908;51.688;7.130;2023-08-30T14:52:24;10.53;;;9.57;;
15616;SDS011;7908;51.688;7.130;2023-08-30T14:55:00;11.80;;;10.60;;
15616;SDS011;7908;51.688;7.130;2023-08-30T14:57:35;9.30;;;8.40;;
15616;SDS011;7908;51.688;7.130;2023-08-30T15:00:16;9.20;;;8.40;;
15616;SDS011;7908;51.688;7.130;2023-08-30T15:02:55;9.23;;;7.70;;